aviador You're here:

MYNN Decoded Metar

NASSAU in BAHAMAS
Report Time2018-01-19 16:00:00
UTC Time2018-01-19 17:02:47
Flight Rules vfr VFR
Wind020° at 08 kt
W.Decomp.*RWY 09: 3.8 kt HW 7.1 kt LCW
RWY 32: 3.0 kt HW 7.4 kt RCW
W.Rank020° ranks 12
Current wind is above 020° avg. (7.3)
Visibility9999 m
Phenomena:N/A
Clouds:Few 030 Hf
Scattered 040 Hf
Broken 220 Hf
Expected CloudBase > 3,600 ft AGL from Temp-Dew spread
Ceiling22,000 ft
Temp22°C (ISA +7)
Dew Point13°C (57% RH)
AAT20.1°C
QNH1025 hPa
Density Alt627 ft
Elevation10 ft
Report Wrong Elevation
Raw Report
METAR MYNN 191600Z 02008KT 9999 FEW030 SCT040 BKN220 22/13 A3028=

Extra information for MYNN:More info

Metar Taf Metar & Taf Last 4 Metars F.Rules Stats Wind Profile Meteogram Temp Stats Airport Information Weather charts Add Link Nearby VenuesMetar ALERT Operation Metar Decoded Social comments